createdAt,value
2019-02-16T00:01:09.623Z,100.00
2019-02-16T00:03:41.923Z,100.00
2019-02-16T00:06:14.321Z,100.00
2019-02-16T00:08:46.825Z,100.00
2019-02-16T00:11:19.282Z,100.00
2019-02-16T00:13:52.167Z,100.00
2019-02-16T00:16:25.509Z,100.00
2019-02-16T00:18:57.699Z,100.00
2019-02-16T00:21:30.190Z,100.00
2019-02-16T00:24:02.540Z,100.00
2019-02-16T00:26:35.527Z,100.00
2019-02-16T00:29:07.921Z,100.00
2019-02-16T00:31:40.010Z,100.00
2019-02-16T00:34:12.067Z,100.00
2019-02-16T00:36:44.505Z,100.00
2019-02-16T00:39:17.197Z,100.00
2019-02-16T00:41:49.690Z,100.00
2019-02-16T00:44:22.868Z,100.00
2019-02-16T00:46:55.731Z,100.00
2019-02-16T00:49:28.567Z,100.00
2019-02-16T00:52:00.658Z,100.00
2019-02-16T00:54:32.739Z,100.00
2019-02-16T00:57:05.344Z,100.00
2019-02-16T00:59:37.759Z,100.00
2019-02-16T01:02:10.125Z,100.00
2019-02-16T01:04:42.335Z,100.00
2019-02-16T01:07:15.058Z,100.00
2019-02-16T01:09:48.071Z,100.00
2019-02-16T01:12:20.468Z,100.00
2019-02-16T01:14:53.200Z,100.00
2019-02-16T01:17:26.072Z,100.00
2019-02-16T01:19:58.488Z,100.00
2019-02-16T01:22:31.281Z,100.00
2019-02-16T01:25:03.726Z,100.00
2019-02-16T01:27:36.103Z,100.00
2019-02-16T01:30:11.301Z,100.00
2019-02-16T01:33:04.273Z,100.00
2019-02-16T01:35:36.688Z,100.00
2019-02-16T01:38:09.490Z,100.00
2019-02-16T01:40:41.832Z,100.00
2019-02-16T01:43:13.905Z,100.00
2019-02-16T01:45:46.502Z,100.00
2019-02-16T01:48:18.869Z,100.00
2019-02-16T01:50:51.465Z,100.00
2019-02-16T01:53:23.848Z,100.00
2019-02-16T01:55:56.622Z,100.00
2019-02-16T01:58:29.195Z,100.00
2019-02-16T02:01:01.631Z,100.00
2019-02-16T02:03:34.190Z,100.00
2019-02-16T02:06:06.554Z,100.00
2019-02-16T02:08:38.959Z,100.00
2019-02-16T02:11:11.287Z,100.00
2019-02-16T02:13:43.588Z,100.00
2019-02-16T02:16:15.913Z,100.00
2019-02-16T02:18:48.384Z,100.00
2019-02-16T02:21:21.090Z,100.00
2019-02-16T02:23:53.843Z,100.00
2019-02-16T02:26:26.251Z,100.00
2019-02-16T02:28:59.029Z,100.00
2019-02-16T02:31:31.385Z,100.00
2019-02-16T02:34:04.105Z,100.00
2019-02-16T02:36:36.447Z,100.00
2019-02-16T02:39:08.948Z,100.00
2019-02-16T02:41:41.410Z,100.00
2019-02-16T02:44:13.801Z,100.00
2019-02-16T02:46:46.217Z,100.00
2019-02-16T02:49:18.567Z,100.00
2019-02-16T02:51:52.448Z,100.00
2019-02-16T02:54:24.755Z,100.00
2019-02-16T02:56:56.831Z,100.00
2019-02-16T02:59:29.206Z,100.00
2019-02-16T03:02:01.551Z,100.00
2019-02-16T03:04:34.148Z,100.00
2019-02-16T03:07:06.571Z,100.00
2019-02-16T03:09:39.482Z,100.00
2019-02-16T03:12:11.842Z,100.00
2019-02-16T03:14:44.340Z,100.00
2019-02-16T03:17:16.709Z,100.00
2019-02-16T03:19:49.158Z,100.00
2019-02-16T03:22:21.558Z,100.00
2019-02-16T03:24:54.567Z,100.00
2019-02-16T03:28:13.681Z,100.00
2019-02-16T03:32:06.537Z,100.00
2019-02-16T03:35:34.485Z,100.00
2019-02-16T03:38:47.522Z,100.00
2019-02-16T03:41:20.017Z,100.00
2019-02-16T03:43:52.371Z,100.00
2019-02-16T03:46:24.734Z,100.00
2019-02-16T03:48:57.321Z,100.00
2019-02-16T03:51:31.336Z,100.00
2019-02-16T03:54:03.409Z,100.00
2019-02-16T03:56:35.604Z,100.00
2019-02-16T03:59:08.003Z,100.00
2019-02-16T04:01:41.348Z,100.00
2019-02-16T04:04:13.435Z,100.00
2019-02-16T04:06:45.742Z,100.00
2019-02-16T04:09:18.195Z,100.00
2019-02-16T04:11:50.623Z,100.00
2019-02-16T04:14:23.119Z,100.00
2019-02-16T04:16:55.822Z,100.00
2019-02-16T04:19:28.195Z,100.00
2019-02-16T04:22:00.977Z,100.00
2019-02-16T04:24:33.354Z,100.00
2019-02-16T04:27:05.705Z,100.00
2019-02-16T04:29:38.186Z,100.00
2019-02-16T04:32:10.555Z,100.00
2019-02-16T04:34:42.922Z,100.00
2019-02-16T04:37:15.320Z,100.00
2019-02-16T04:39:47.761Z,100.00
2019-02-16T04:42:20.582Z,100.00
2019-02-16T04:44:52.954Z,100.00
2019-02-16T04:47:25.361Z,100.00
2019-02-16T04:49:57.717Z,100.00
2019-02-16T04:52:34.762Z,100.00
2019-02-16T04:55:03.930Z,100.00
2019-02-16T04:57:36.566Z,100.00
2019-02-16T05:00:10.909Z,100.00
2019-02-16T05:02:43.276Z,100.00
2019-02-16T05:05:15.660Z,100.00
2019-02-16T05:07:48.577Z,100.00
2019-02-16T05:10:21.415Z,100.00
2019-02-16T05:12:54.912Z,100.00
2019-02-16T05:15:27.005Z,100.00
2019-02-16T05:17:59.744Z,100.00
2019-02-16T05:20:32.210Z,100.00
2019-02-16T05:23:04.636Z,100.00
2019-02-16T05:25:37.132Z,100.00
2019-02-16T05:28:09.551Z,100.00
2019-02-16T05:30:42.063Z,100.00
2019-02-16T05:33:14.556Z,100.00
2019-02-16T05:35:47.430Z,100.00
2019-02-16T05:38:20.031Z,100.00
2019-02-16T05:40:52.469Z,100.00
2019-02-16T05:43:25.304Z,100.00
2019-02-16T05:45:57.825Z,100.00
2019-02-16T05:48:32.538Z,100.00
2019-02-16T05:51:03.673Z,100.00
2019-02-16T05:53:35.924Z,100.00
2019-02-16T05:56:08.344Z,100.00
2019-02-16T05:58:40.959Z,100.00
2019-02-16T06:01:16.134Z,100.00
2019-02-16T06:03:48.738Z,100.00
2019-02-16T06:06:21.127Z,100.00
2019-02-16T06:08:54.238Z,100.00
2019-02-16T06:11:26.551Z,100.00
2019-02-16T06:13:58.940Z,100.00
2019-02-16T06:16:32.510Z,100.00
2019-02-16T06:19:04.687Z,100.00
2019-02-16T06:21:44.998Z,100.00
2019-02-16T06:24:21.523Z,100.00
2019-02-16T06:26:53.900Z,100.00
2019-02-16T06:29:26.407Z,100.00
2019-02-16T06:31:59.562Z,100.00
2019-02-16T06:34:32.535Z,100.00
2019-02-16T06:37:20.434Z,100.00
2019-02-16T06:39:53.048Z,100.00
2019-02-16T06:42:25.488Z,100.00
2019-02-16T06:44:57.940Z,100.00
2019-02-16T06:47:31.048Z,100.00
2019-02-16T06:50:15.270Z,100.00
2019-02-16T06:52:47.790Z,100.00
2019-02-16T06:55:20.649Z,100.00
2019-02-16T06:57:54.901Z,100.00
2019-02-16T07:00:29.016Z,100.00
2019-02-16T07:03:01.992Z,100.00
2019-02-16T07:05:33.096Z,100.00
2019-02-16T07:08:05.517Z,100.00
2019-02-16T07:10:38.065Z,100.00
2019-02-16T07:13:10.475Z,100.00
2019-02-16T07:15:44.516Z,100.00
2019-02-16T07:18:27.420Z,100.00
2019-02-16T07:20:59.964Z,100.00
2019-02-16T07:23:32.305Z,100.00
2019-02-16T07:26:05.019Z,100.00
2019-02-16T07:28:37.434Z,100.00
2019-02-16T07:31:09.856Z,100.00
2019-02-16T07:33:42.251Z,100.00
2019-02-16T07:36:14.650Z,100.00
2019-02-16T07:38:47.078Z,100.00
2019-02-16T07:41:19.552Z,100.00
2019-02-16T07:44:22.855Z,100.00
2019-02-16T07:47:20.149Z,100.00
2019-02-16T07:50:00.778Z,100.00
2019-02-16T07:52:46.113Z,100.00
2019-02-16T07:55:42.962Z,100.00
2019-02-16T07:58:34.274Z,100.00
2019-02-16T08:01:18.135Z,100.00
2019-02-16T08:04:07.404Z,100.00
2019-02-16T08:07:04.313Z,100.00
2019-02-16T08:09:53.734Z,100.00
2019-02-16T08:12:34.593Z,100.00
2019-02-16T08:15:35.073Z,100.00
2019-02-16T08:18:34.925Z,100.00
2019-02-16T08:21:24.850Z,100.00
2019-02-16T08:24:17.212Z,100.00
2019-02-16T08:27:14.586Z,100.00
2019-02-16T08:30:08.914Z,100.00
2019-02-16T08:32:54.495Z,100.00
2019-02-16T08:35:33.883Z,100.00
2019-02-16T08:38:27.543Z,100.00
2019-02-16T08:41:30.516Z,100.00
2019-02-16T08:44:22.105Z,100.00
2019-02-16T08:47:06.956Z,100.00
2019-02-16T08:50:03.820Z,100.00
2019-02-16T08:52:53.789Z,100.00
2019-02-16T08:55:41.148Z,100.00
2019-02-16T08:58:31.106Z,100.00
2019-02-16T09:01:21.181Z,100.00
2019-02-16T09:04:07.490Z,100.00
2019-02-16T09:06:59.763Z,100.00
2019-02-16T09:09:50.290Z,100.00
2019-02-16T09:12:32.137Z,100.00
2019-02-16T09:15:35.482Z,100.00
2019-02-16T09:18:25.898Z,100.00
2019-02-16T09:21:19.817Z,100.00
2019-02-16T09:24:08.914Z,100.00
2019-02-16T09:27:20.332Z,100.00
2019-02-16T09:30:15.425Z,100.00
2019-02-16T09:32:52.940Z,100.00
2019-02-16T09:35:49.928Z,100.00
2019-02-16T09:38:35.972Z,100.00
2019-02-16T09:41:30.192Z,100.00
2019-02-16T09:44:20.184Z,100.00
2019-02-16T09:47:10.410Z,99.84
2019-02-16T09:49:49.095Z,98.39
2019-02-16T09:52:28.014Z,96.43
2019-02-16T09:55:19.840Z,94.97
2019-02-16T09:58:00.475Z,93.49
2019-02-16T10:00:55.127Z,91.80
2019-02-16T10:03:34.057Z,90.58
2019-02-16T10:06:24.606Z,88.54
2019-02-16T10:09:12.021Z,87.06
2019-02-16T10:12:04.135Z,85.12
2019-02-16T10:14:55.913Z,83.95
2019-02-16T10:17:39.665Z,81.77
2019-02-16T10:20:40.359Z,81.01
2019-02-16T10:23:23.175Z,79.35
2019-02-16T10:26:26.696Z,79.01
2019-02-16T10:29:26.022Z,77.88
2019-02-16T10:32:08.158Z,76.88
2019-02-16T10:34:58.346Z,76.23
2019-02-16T10:37:56.243Z,75.34
2019-02-16T10:40:51.817Z,73.82
2019-02-16T10:43:35.699Z,73.22
2019-02-16T10:46:35.093Z,72.44
2019-02-16T10:49:38.604Z,71.18
2019-02-16T10:52:32.986Z,70.66
2019-02-16T10:55:24.969Z,69.66
2019-02-16T10:58:19.691Z,68.81
2019-02-16T11:01:07.549Z,68.21
2019-02-16T11:03:59.384Z,67.12
2019-02-16T11:06:51.304Z,66.25
2019-02-16T11:09:41.931Z,65.67
2019-02-16T11:12:41.829Z,65.29
2019-02-16T11:15:53.235Z,64.50
2019-02-16T11:18:45.319Z,64.18
2019-02-16T11:21:42.932Z,63.76
2019-02-16T11:24:38.466Z,62.45
2019-02-16T11:27:32.917Z,63.43
2019-02-16T11:30:29.284Z,62.01
2019-02-16T11:33:08.498Z,62.30
2019-02-16T11:36:00.163Z,60.72
2019-02-16T11:38:49.702Z,60.85
2019-02-16T11:41:34.601Z,60.22
2019-02-16T11:44:29.490Z,59.99
2019-02-16T11:47:22.523Z,60.56
2019-02-16T11:50:05.656Z,59.38
2019-02-16T11:53:12.094Z,59.21
2019-02-16T11:56:02.849Z,58.41
2019-02-16T11:58:55.298Z,58.00
2019-02-16T12:01:43.803Z,57.89
2019-02-16T12:04:41.667Z,57.78
2019-02-16T12:07:26.290Z,57.89
2019-02-16T12:10:27.300Z,57.66
2019-02-16T12:13:18.813Z,55.59
2019-02-16T12:16:10.505Z,55.03
2019-02-16T12:19:01.334Z,55.29
2019-02-16T12:21:51.831Z,54.24
2019-02-16T12:25:04.989Z,55.58
2019-02-16T12:27:47.952Z,54.89
2019-02-16T12:30:49.084Z,53.90
2019-02-16T12:33:47.492Z,53.86
2019-02-16T12:36:30.934Z,53.86
2019-02-16T12:39:28.113Z,53.19
2019-02-16T12:42:07.997Z,52.65
2019-02-16T12:44:56.604Z,52.77
2019-02-16T12:47:47.484Z,52.67
2019-02-16T12:50:39.545Z,53.57
2019-02-16T12:53:34.236Z,52.72
2019-02-16T12:56:24.740Z,54.36
2019-02-16T12:59:20.063Z,53.74
2019-02-16T13:02:10.581Z,52.42
2019-02-16T13:05:13.696Z,53.19
2019-02-16T13:07:59.445Z,52.99
2019-02-16T13:10:53.741Z,54.85
2019-02-16T13:13:43.565Z,52.86
2019-02-16T13:16:40.874Z,53.37
2019-02-16T13:19:38.599Z,50.52
2019-02-16T13:22:30.679Z,51.53
2019-02-16T13:25:24.384Z,53.25
2019-02-16T13:28:18.120Z,50.93
2019-02-16T13:31:04.963Z,52.35
2019-02-16T13:33:50.088Z,52.89
2019-02-16T13:36:29.695Z,51.76
2019-02-16T13:39:16.389Z,50.02
2019-02-16T13:41:58.381Z,52.04
2019-02-16T13:44:55.463Z,53.06
2019-02-16T13:47:31.357Z,51.36
2019-02-16T13:50:12.435Z,52.80
2019-02-16T13:53:16.260Z,50.80
2019-02-16T13:56:07.929Z,50.75
2019-02-16T13:58:59.254Z,50.43
2019-02-16T14:01:53.686Z,52.15
2019-02-16T14:04:54.192Z,50.60
2019-02-16T14:07:58.112Z,50.43
2019-02-16T14:10:52.719Z,50.66
2019-02-16T14:13:44.778Z,50.26
2019-02-16T14:16:38.403Z,50.06
2019-02-16T14:19:11.885Z,51.49
2019-02-16T14:21:44.299Z,50.21
2019-02-16T14:24:18.291Z,50.90
2019-02-16T14:26:55.101Z,50.66
2019-02-16T14:29:27.946Z,52.90
2019-02-16T14:32:03.223Z,54.30
2019-02-16T14:34:39.090Z,49.90
2019-02-16T14:37:29.736Z,54.44
2019-02-16T14:40:02.281Z,51.56
2019-02-16T14:42:35.295Z,51.45
2019-02-16T14:45:07.558Z,50.28
2019-02-16T14:47:40.338Z,49.90
2019-02-16T14:50:12.617Z,52.16
2019-02-16T14:52:45.065Z,52.41
2019-02-16T14:55:17.459Z,51.09
2019-02-16T14:57:51.158Z,49.47
2019-02-16T15:00:23.634Z,51.02
2019-02-16T15:02:56.417Z,54.58
2019-02-16T15:05:28.872Z,52.35
2019-02-16T15:08:01.273Z,51.27
2019-02-16T15:10:33.827Z,53.66
2019-02-16T15:13:06.245Z,53.57
2019-02-16T15:15:39.751Z,53.78
2019-02-16T15:18:12.282Z,54.03
2019-02-16T15:20:44.761Z,51.37
2019-02-16T15:23:17.139Z,54.24
2019-02-16T15:25:49.536Z,51.26
2019-02-16T15:28:21.922Z,53.70
2019-02-16T15:30:54.377Z,53.56
2019-02-16T15:33:27.774Z,54.60
2019-02-16T15:36:02.012Z,52.94
2019-02-16T15:38:35.043Z,53.49
2019-02-16T15:41:06.351Z,53.44
2019-02-16T15:43:38.383Z,53.40
2019-02-16T15:46:10.815Z,52.05
2019-02-16T15:48:43.703Z,53.43
2019-02-16T15:51:15.058Z,53.61
2019-02-16T15:53:47.533Z,52.65
2019-02-16T15:56:21.610Z,54.19
2019-02-16T15:58:55.406Z,54.28
2019-02-16T16:01:28.126Z,55.05
2019-02-16T16:04:00.620Z,55.94
2019-02-16T16:06:33.747Z,57.04
2019-02-16T16:09:34.429Z,57.45
2019-02-16T16:12:16.246Z,58.44
2019-02-16T16:14:56.238Z,58.64
2019-02-16T16:17:46.994Z,58.58
2019-02-16T16:20:41.862Z,58.99
2019-02-16T16:23:25.853Z,59.26
2019-02-16T16:26:23.913Z,61.66
2019-02-16T16:29:13.603Z,60.81
2019-02-16T16:31:53.311Z,61.19
2019-02-16T16:34:42.390Z,62.70
2019-02-16T16:37:33.602Z,61.98
2019-02-16T16:40:54.051Z,62.18
2019-02-16T16:43:44.199Z,64.31
2019-02-16T16:46:38.200Z,65.32
2019-02-16T16:49:29.895Z,63.79
2019-02-16T16:52:27.775Z,64.01
2019-02-16T16:55:15.100Z,64.68
2019-02-16T16:58:19.083Z,65.98
2019-02-16T17:01:16.280Z,66.92
2019-02-16T17:03:56.954Z,66.59
2019-02-16T17:07:03.802Z,67.05
2019-02-16T17:09:57.997Z,68.98
2019-02-16T17:13:05.073Z,69.62
2019-02-16T17:15:59.330Z,69.96
2019-02-16T17:18:58.869Z,70.49
2019-02-16T17:21:45.103Z,71.26
2019-02-16T17:24:55.180Z,72.11
2019-02-16T17:27:35.158Z,71.67
2019-02-16T17:30:34.902Z,72.58
2019-02-16T17:33:29.188Z,73.75
2019-02-16T17:36:21.008Z,75.03
2019-02-16T17:39:25.418Z,75.92
2019-02-16T17:42:20.003Z,75.99
2019-02-16T17:45:10.288Z,76.46
2019-02-16T17:48:17.173Z,76.97
2019-02-16T17:50:57.539Z,77.33
2019-02-16T17:53:47.988Z,77.52
2019-02-16T17:56:46.840Z,78.18
2019-02-16T17:59:28.320Z,79.28
2019-02-16T18:02:19.810Z,79.32
2019-02-16T18:05:18.128Z,80.37
2019-02-16T18:08:08.510Z,80.77
2019-02-16T18:11:06.103Z,81.62
2019-02-16T18:13:56.897Z,82.21
2019-02-16T18:16:41.856Z,82.58
2019-02-16T18:19:21.373Z,82.97
2019-02-16T18:22:02.460Z,83.50
2019-02-16T18:24:57.242Z,83.71
2019-02-16T18:27:44.362Z,83.97
2019-02-16T18:30:39.120Z,84.45
2019-02-16T18:33:46.056Z,84.79
2019-02-16T18:36:28.138Z,85.21
2019-02-16T18:39:37.994Z,85.59
2019-02-16T18:42:29.519Z,85.92
2019-02-16T18:45:29.024Z,86.31
2019-02-16T18:48:24.644Z,86.64
2019-02-16T18:51:16.177Z,86.92
2019-02-16T18:54:07.803Z,87.26
2019-02-16T18:57:06.382Z,87.57
2019-02-16T19:00:03.015Z,88.01
2019-02-16T19:03:00.305Z,88.25
2019-02-16T19:05:50.726Z,88.63
2019-02-16T19:08:42.301Z,88.82
2019-02-16T19:11:39.880Z,88.97
2019-02-16T19:14:24.784Z,89.30
2019-02-16T19:17:22.446Z,89.62
2019-02-16T19:20:10.248Z,90.13
2019-02-16T19:23:09.013Z,90.58
2019-02-16T19:25:58.066Z,91.30
2019-02-16T19:28:42.219Z,91.63
2019-02-16T19:31:24.703Z,91.93
2019-02-16T19:34:31.433Z,92.26
2019-02-16T19:37:39.906Z,92.47
2019-02-16T19:40:28.285Z,92.93
2019-02-16T19:43:08.697Z,93.47
2019-02-16T19:46:00.293Z,93.81
2019-02-16T19:48:50.697Z,94.31
2019-02-16T19:51:51.477Z,94.56
2019-02-16T19:54:44.187Z,94.96
2019-02-16T19:57:54.747Z,95.17
2019-02-16T20:00:46.652Z,95.51
2019-02-16T20:03:41.608Z,95.78
2019-02-16T20:06:22.776Z,96.29
2019-02-16T20:09:20.549Z,96.58
2019-02-16T20:12:15.422Z,96.84
2019-02-16T20:15:01.349Z,97.22
2019-02-16T20:17:58.978Z,97.34
2019-02-16T20:21:02.659Z,97.60
2019-02-16T20:23:45.310Z,97.86
2019-02-16T20:26:35.610Z,97.97
2019-02-16T20:29:27.504Z,98.22
2019-02-16T20:32:34.548Z,98.54
2019-02-16T20:35:34.974Z,98.75
2019-02-16T20:38:25.391Z,98.93
2019-02-16T20:41:17.286Z,99.42
2019-02-16T20:44:12.268Z,99.64
2019-02-16T20:46:55.630Z,99.89
2019-02-16T20:49:48.390Z,100.00
2019-02-16T20:52:27.841Z,100.00
2019-02-16T20:55:17.496Z,100.00
2019-02-16T20:58:07.699Z,100.00
2019-02-16T21:01:01.217Z,100.00
2019-02-16T21:03:51.881Z,100.00
2019-02-16T21:06:51.996Z,100.00
2019-02-16T21:09:32.145Z,100.00
2019-02-16T21:12:29.473Z,100.00
2019-02-16T21:15:10.993Z,100.00
2019-02-16T21:18:06.023Z,100.00
2019-02-16T21:21:06.196Z,100.00
2019-02-16T21:24:16.042Z,100.00
2019-02-16T21:27:06.825Z,100.00
2019-02-16T21:30:03.059Z,100.00
2019-02-16T21:32:58.320Z,100.00
2019-02-16T21:35:48.582Z,100.00
2019-02-16T21:38:44.148Z,100.00
2019-02-16T21:41:50.970Z,100.00
2019-02-16T21:44:45.214Z,100.00
2019-02-16T21:47:39.324Z,100.00
2019-02-16T21:50:31.332Z,100.00
2019-02-16T21:53:34.949Z,100.00
2019-02-16T21:56:24.553Z,100.00
2019-02-16T21:59:21.642Z,100.00
2019-02-16T22:02:19.811Z,100.00
2019-02-16T22:05:02.480Z,100.00
2019-02-16T22:07:52.882Z,100.00
2019-02-16T22:10:34.116Z,100.00
2019-02-16T22:13:09.149Z,100.00
2019-02-16T22:15:41.384Z,100.00
2019-02-16T22:18:13.875Z,100.00
2019-02-16T22:20:46.330Z,100.00
2019-02-16T22:23:18.927Z,100.00
2019-02-16T22:25:51.420Z,100.00
2019-02-16T22:28:30.893Z,100.00
2019-02-16T22:30:58.782Z,100.00
2019-02-16T22:33:31.428Z,100.00
2019-02-16T22:36:03.788Z,100.00
2019-02-16T22:38:36.591Z,100.00
2019-02-16T22:41:08.688Z,100.00
2019-02-16T22:43:40.943Z,100.00
2019-02-16T22:46:14.092Z,100.00
2019-02-16T22:48:46.489Z,100.00
2019-02-16T22:51:19.337Z,100.00
2019-02-16T22:53:53.406Z,100.00
2019-02-16T22:56:25.634Z,100.00
2019-02-16T22:59:00.509Z,100.00
2019-02-16T23:01:32.752Z,100.00
2019-02-16T23:04:06.203Z,100.00
2019-02-16T23:06:38.650Z,100.00
2019-02-16T23:09:21.242Z,100.00
2019-02-16T23:11:53.657Z,100.00
2019-02-16T23:14:26.232Z,100.00
2019-02-16T23:16:58.768Z,100.00
2019-02-16T23:19:31.328Z,100.00
2019-02-16T23:22:03.671Z,100.00
2019-02-16T23:24:35.767Z,100.00
2019-02-16T23:27:07.951Z,100.00
2019-02-16T23:29:40.682Z,100.00
2019-02-16T23:32:13.117Z,100.00
2019-02-16T23:34:45.494Z,100.00
2019-02-16T23:37:17.656Z,100.00
2019-02-16T23:39:49.799Z,100.00
2019-02-16T23:42:22.160Z,100.00
2019-02-16T23:44:55.059Z,100.00
2019-02-16T23:47:27.401Z,100.00
2019-02-16T23:49:59.488Z,100.00
2019-02-16T23:52:31.552Z,100.00
2019-02-16T23:55:03.812Z,100.00
2019-02-16T23:57:36.222Z,100.00
